Time;durP1;ratioP1;P1;durP2;ratioP2;P2;SDS_P1;SDS_P2;PMS_P1;PMS_P2;Temp;Humidity;BMP_temperature;BMP_pressure;BME280_temperature;BME280_humidity;BME280_pressure;Samples;Min_cycle;Max_cycle;Signal;HPM_P1;HPM_P2
2022/07/06 00:01:39;;;;;;;11.40;4.80;;;;;;;16.10;65.08;99251.84;109042;1281;22417;-87
2022/07/06 00:04:40;;;;;;;;;;;;;;;;;;;;;
2022/07/06 00:07:28;;;;;;;8.70;4.40;;;;;;;16.05;65.34;99253.48;109196;1281;22351;-87
2022/07/06 00:10:16;;;;;;;9.20;4.90;;;;;;;16.06;65.38;99253.55;108772;1281;22640;-87
2022/07/06 00:13:08;;;;;;;10.40;4.50;;;;;;;16.03;65.40;99249.05;109038;1280;22439;-86
2022/07/06 00:16:53;;;;;;;;;;;;;;;;;;;;;
2022/07/06 00:20:24;;;;;;;9.50;3.70;;;;;;;16.11;65.54;99250.39;108508;1287;22740;-86
2022/07/06 00:23:58;;;;;;;;;;;;;;;;;;;;;
2022/07/06 00:26:42;;;;;;;7.90;3.60;;;;;;;16.23;65.57;99245.23;108459;1286;22403;-86
2022/07/06 00:29:46;;;;;;;;;;;;;;;;;;;;;
2022/07/06 00:33:04;;;;;;;;;;;;;;;;;;;;;
2022/07/06 00:35:49;;;;;;;10.30;3.50;;;;;;;16.18;65.59;99242.27;108448;1286;22455;-86
2022/07/06 00:38:51;;;;;;;;;;;;;;;;;;;;;
2022/07/06 00:41:46;;;;;;;6.30;2.90;;;;;;;16.20;65.59;99241.08;108314;1287;22412;-86
2022/07/06 00:44:57;;;;;;;8.20;2.80;;;;;;;16.19;65.64;99237.76;108395;1287;23229;-86
2022/07/06 00:48:16;;;;;;;;;;;;;;;;;;;;;
2022/07/06 00:51:59;;;;;;;;;;;;;;;;;;;;;
2022/07/06 00:59:05;;;;;;;7.70;3.40;;;;;;;16.24;65.89;99232.15;107193;1298;22832;-86
2022/07/06 01:02:45;;;;;;;7.00;3.60;;;;;;;16.21;65.94;99232.80;107228;1297;22395;-86
2022/07/06 01:09:54;;;;;;;8.90;3.30;;;;;;;16.06;65.98;99233.14;106905;1300;23135;-86
2022/07/06 01:13:07;;;;;;;;;;;;;;;;;;;;;
2022/07/06 01:24:09;;;;;;;8.90;4.00;;;;;;;15.92;66.28;99235.80;104928;1289;22606;-86
2022/07/06 01:27:42;;;;;;;;;;;;;;;;;;;;;
2022/07/06 01:30:42;;;;;;;7.10;3.30;;;;;;;15.88;66.43;99236.35;104771;1292;25258;-87
2022/07/06 01:34:21;;;;;;;7.60;3.30;;;;;;;15.85;66.49;99236.64;101574;1283;5348042;-86
2022/07/06 01:37:16;;;;;;;;;;;;;;;;;;;;;
2022/07/06 01:40:50;;;;;;;7.90;4.10;;;;;;;15.81;66.61;99230.73;105808;1281;23836;-86
2022/07/06 01:44:53;;;;;;;7.10;3.90;;;;;;;15.80;66.78;99237.83;105226;1286;23197;-87
2022/07/06 01:48:47;;;;;;;9.90;4.40;;;;;;;15.76;66.82;99236.42;105224;1286;22639;-86
2022/07/06 01:51:46;;;;;;;;;;;;;;;;;;;;;
2022/07/06 01:55:49;;;;;;;;;;;;;;;;;;;;;
2022/07/06 01:58:59;;;;;;;;;;;;;;;;;;;;;
2022/07/06 02:02:07;;;;;;;11.10;3.90;;;;;;;15.79;67.02;99231.98;104218;1294;25495;-87
2022/07/06 02:05:31;;;;;;;;;;;;;;;;;;;;;
2022/07/06 02:08:58;;;;;;;;;;;;;;;;;;;;;
2022/07/06 02:12:46;;;;;;;11.20;3.40;;;;;;;15.97;66.81;99240.02;104101;1297;25304;-86
2022/07/06 02:15:54;;;;;;;9.00;3.50;;;;;;;16.07;67.02;99248.14;104497;1299;22860;-86
2022/07/06 02:18:49;;;;;;;;;;;;;;;;;;;;;
2022/07/06 02:22:03;;;;;;;;;;;;;;;;;;;;;
2022/07/06 02:25:42;;;;;;;10.20;2.80;;;;;;;16.13;66.77;99256.02;104427;1294;25626;-84
2022/07/06 02:28:58;;;;;;;;;;;;;;;;;;;;;
2022/07/06 02:32:29;;;;;;;;;;;;;;;;;;;;;
2022/07/06 02:35:42;;;;;;;11.10;3.70;;;;;;;16.18;66.80;99270.95;104833;1290;24155;-91
2022/07/06 02:39:49;;;;;;;10.90;3.50;;;;;;;16.16;66.83;99284.84;105741;1291;22627;-90
2022/07/06 02:43:49;;;;;;;;;;;;;;;;;;;;;
2022/07/06 02:47:25;;;;;;;;;;;;;;;;;;;;;
2022/07/06 02:50:53;;;;;;;8.50;3.40;;;;;;;15.85;67.06;99339.34;105288;1294;25361;-88
2022/07/06 02:54:49;;;;;;;;;;;;;;;;;;;;;
2022/07/06 02:58:36;;;;;;;;;;;;;;;;;;;;;
2022/07/06 03:01:56;;;;;;;;;;;;;;;;;;;;;
2022/07/06 03:05:00;;;;;;;7.80;3.00;;;;;;;15.53;66.95;99363.38;106953;1287;22559;-91
2022/07/06 03:08:10;;;;;;;8.20;3.20;;;;;;;15.48;66.92;99367.18;105771;1286;22595;-89
2022/07/06 03:11:09;;;;;;;8.90;3.30;;;;;;;15.41;66.97;99375.33;105617;1288;22741;-90
2022/07/06 03:14:02;;;;;;;11.80;3.40;;;;;;;15.36;67.07;99378.26;105406;1289;25374;-89
2022/07/06 03:18:06;;;;;;;;;;;;;;;;;;;;;
2022/07/06 03:20:55;;;;;;;;;;;;;;;;;;;;;
2022/07/06 03:24:53;;;;;;;;;;;;;;;;;;;;;
2022/07/06 03:28:32;;;;;;;;;;;;;;;;;;;;;
2022/07/06 03:32:11;;;;;;;;;;;;;;;;;;;;;
2022/07/06 03:35:44;;;;;;;;;;;;;;;;;;;;;
2022/07/06 03:39:23;;;;;;;;;;;;;;;;;;;;;
2022/07/06 03:42:53;;;;;;;;;;;;;;;;;;;;;
2022/07/06 03:46:56;;;;;;;6.60;2.10;;;;;;;15.11;67.52;99404.15;105889;1281;22555;-86
2022/07/06 03:54:06;;;;;;;5.40;2.30;;;;;;;14.96;67.82;99399.48;106874;1290;25542;-90
2022/07/06 03:57:26;;;;;;;5.60;1.80;;;;;;;14.91;67.81;99400.65;106820;1291;22613;-93
2022/07/06 04:00:41;;;;;;;;;;;;;;;;;;;;;
2022/07/06 04:07:06;;;;;;;;;;;;;;;;;;;;;
2022/07/06 04:10:26;;;;;;;3.80;1.40;;;;;;;14.69;67.89;99395.44;109343;1266;22676;31
2022/07/06 04:13:43;;;;;;;;;;;;;;;;;;;;;
2022/07/06 04:17:02;;;;;;;;;;;;;;;;;;;;;
2022/07/06 04:30:08;;;;;;;;;;;;;;;;;;;;;
2022/07/06 04:36:42;;;;;;;;;;;;;;;;;;;;;
2022/07/06 04:40:35;;;;;;;;;;;;;;;;;;;;;
2022/07/06 04:51:42;;;;;;;;;;;;;;;;;;;;;
2022/07/06 05:07:39;;;;;;;;;;;;;;;;;;;;;
2022/07/06 05:30:18;;;;;;;;;;;;;;;;;;;;;
2022/07/06 05:36:29;;;;;;;;;;;;;;;;;;;;;
2022/07/06 05:44:02;;;;;;;;;;;;;;;;;;;;;
2022/07/06 05:51:38;;;;;;;9.80;2.60;;;;;;;16.01;68.38;99350.48;108644;1287;22401;-91
2022/07/06 05:54:59;;;;;;;;;;;;;;;;;;;;;
2022/07/06 06:03:02;;;;;;;;;;;;;;;;;;;;;
2022/07/06 06:06:59;;;;;;;;;;;;;;;;;;;;;
2022/07/06 06:31:51;;;;;;;;;;;;;;;;;;;;;
2022/07/06 06:35:37;;;;;;;;;;;;;;;;;;;;;
2022/07/06 06:40:06;;;;;;;;;;;;;;;;;;;;;
2022/07/06 06:46:36;;;;;;;8.40;1.60;;;;;;;19.05;67.00;99353.98;108517;1287;23184;-90
2022/07/06 06:55:01;;;;;;;;;;;;;;;;;;;;;
2022/07/06 06:58:31;;;;;;;3.30;1.00;;;;;;;19.62;65.98;99345.59;108348;1284;22399;-88
2022/07/06 07:01:37;;;;;;;5.30;1.10;;;;;;;19.63;65.83;99347.22;108285;1287;22162;-90
2022/07/06 07:04:26;;;;;;;3.00;0.90;;;;;;;19.70;65.70;99357.34;108641;1284;22358;-90
2022/07/06 07:07:33;;;;;;;3.40;1.20;;;;;;;19.75;65.57;99358.48;108735;1285;22313;-90
2022/07/06 07:10:15;;;;;;;3.20;1.20;;;;;;;19.74;65.27;99356.23;108702;1284;22326;-88
2022/07/06 07:13:19;;;;;;;5.40;1.10;;;;;;;19.78;65.43;99357.77;108538;1284;22341;-90
2022/07/06 07:16:09;;;;;;;3.10;1.00;;;;;;;19.91;65.57;99369.06;108395;1285;22361;-87
2022/07/06 07:19:12;;;;;;;3.60;1.20;;;;;;;20.00;65.18;99364.67;108467;1285;22464;-88
2022/07/06 07:22:12;;;;;;;;;;;;;;;;;;;;;
2022/07/06 07:33:17;;;;;;;;;;;;;;;;;;;;;
2022/07/06 07:36:23;;;;;;;;;;;;;;;;;;;;;
2022/07/06 07:39:50;;;;;;;5.80;1.20;;;;;;;20.86;63.26;99365.19;108072;1285;22425;-89
2022/07/06 07:42:57;;;;;;;3.00;1.10;;;;;;;20.90;63.72;99362.69;107568;1294;22432;-87
2022/07/06 07:46:23;;;;;;;3.70;1.20;;;;;;;21.16;63.86;99369.17;107411;1294;22522;-88
2022/07/06 07:49:50;;;;;;;6.00;1.20;;;;;;;21.34;63.04;99368.64;108165;1286;22846;-89
2022/07/06 07:52:51;;;;;;;3.70;1.20;;;;;;;21.27;62.91;99373.73;107332;1296;22506;-90
2022/07/06 07:55:52;;;;;;;4.10;1.10;;;;;;;21.31;62.49;99370.77;107381;1295;22469;-89
2022/07/06 07:59:54;;;;;;;4.40;1.30;;;;;;;21.38;62.94;99374.17;107359;1296;22371;-89
2022/07/06 08:02:26;;;;;;;5.30;1.00;;;;;;;21.65;62.64;99374.56;107048;1299;22673;-90
2022/07/06 08:05:37;;;;;;;2.40;0.90;;;;;;;21.73;62.20;99368.93;107151;1299;23175;-90
2022/07/06 08:09:06;;;;;;;3.40;1.00;;;;;;;21.72;62.32;99368.02;108136;1285;22405;-88
2022/07/06 08:11:43;;;;;;;3.00;0.90;;;;;;;21.86;62.24;99372.48;107566;1294;22526;-85
2022/07/06 08:14:37;;;;;;;;;;;;;;;;;;;;;
2022/07/06 08:17:52;;;;;;;4.90;1.30;;;;;;;21.72;61.08;99374.21;107632;1293;22445;-88
2022/07/06 08:20:57;;;;;;;3.50;1.10;;;;;;;21.84;61.66;99377.80;107668;1293;22586;-86
2022/07/06 08:24:03;;;;;;;4.90;1.60;;;;;;;22.10;62.26;99377.39;107084;1299;22996;-88
2022/07/06 08:27:08;;;;;;;2.60;1.00;;;;;;;22.48;61.76;99371.98;107180;1299;23083;-87
2022/07/06 08:33:59;;;;;;;;;;;;;;;;;;;;;
2022/07/06 08:36:44;;;;;;;4.90;1.10;;;;;;;22.80;60.41;99373.83;108572;1285;23003;-87
2022/07/06 08:39:42;;;;;;;4.40;1.40;;;;;;;22.77;60.88;99360.77;108488;1285;22377;-88
2022/07/06 08:42:59;;;;;;;;;;;;;;;;;;;;;
2022/07/06 08:46:15;;;;;;;5.70;1.30;;;;;;;23.18;61.17;99367.46;108441;1285;22488;-88
2022/07/06 08:49:48;;;;;;;3.40;1.10;;;;;;;23.41;60.63;99370.08;108250;1287;22379;-86
2022/07/06 08:56:27;;;;;;;;;;;;;;;;;;;;;
2022/07/06 09:00:03;;;;;;;;;;;;;;;;;;;;;
2022/07/06 09:03:03;;;;;;;;;;;;;;;;;;;;;
2022/07/06 09:06:41;;;;;;;;;;;;;;;;;;;;;
2022/07/06 09:14:03;;;;;;;;;;;;;;;;;;;;;
2022/07/06 09:18:04;;;;;;;;;;;;;;;;;;;;;
2022/07/06 09:21:37;;;;;;;;;;;;;;;;;;;;;
2022/07/06 09:25:51;;;;;;;4.30;1.00;;;;;;;23.89;58.01;99365.79;106386;1311;22179;-89
2022/07/06 09:36:45;;;;;;;5.90;1.10;;;;;;;24.58;57.38;99366.42;103243;1308;545148;-89
2022/07/06 09:39:31;;;;;;;3.70;1.00;;;;;;;24.63;56.85;99362.67;105357;1283;22540;-90
2022/07/06 09:49:38;;;;;;;3.10;0.80;;;;;;;24.30;56.24;99360.87;104019;1273;2714464;-88
2022/07/06 09:52:18;;;;;;;8.50;1.20;;;;;;;24.29;55.85;99360.58;106207;1273;22601;-89
2022/07/06 09:55:15;;;;;;;4.90;0.90;;;;;;;23.98;55.98;99359.29;106306;1274;22532;-87
2022/07/06 09:57:57;;;;;;;3.20;1.00;;;;;;;23.76;55.37;99359.77;106170;1274;26494;-88
2022/07/06 10:00:33;;;;;;;4.10;0.90;;;;;;;23.74;55.60;99357.43;106198;1274;25428;-88
2022/07/06 10:03:12;;;;;;;4.00;1.10;;;;;;;23.88;55.39;99356.76;106124;1274;25542;-89
2022/07/06 10:05:59;;;;;;;2.70;0.90;;;;;;;24.19;55.43;99351.11;106576;1274;22583;-89
2022/07/06 10:08:47;;;;;;;4.10;1.00;;;;;;;24.57;55.96;99350.03;105941;1274;22543;-88
2022/07/06 10:16:17;;;;;;;4.80;1.30;;;;;;;23.68;54.85;99362.50;106074;1274;23155;-86
2022/07/06 10:19:00;;;;;;;;;;;;;;;;;;;;;
2022/07/06 10:21:44;;;;;;;4.30;1.00;;;;;;;22.99;54.79;99370.95;106081;1274;22531;-86
2022/07/06 10:24:56;;;;;;;4.50;1.00;;;;;;;23.34;54.27;99365.14;106488;1274;22520;-87
2022/07/06 10:27:43;;;;;;;5.80;1.10;;;;;;;23.81;54.64;99354.89;106251;1274;22620;-87
2022/07/06 10:30:18;;;;;;;4.40;0.90;;;;;;;23.87;54.21;99354.73;105873;1277;25429;-88
2022/07/06 10:32:51;;;;;;;4.60;1.00;;;;;;;23.68;54.24;99357.02;106184;1274;24272;-85
2022/07/06 10:35:26;;;;;;;3.20;1.10;;;;;;;23.70;54.07;99360.14;106119;1277;22603;-85
2022/07/06 10:38:17;;;;;;;6.20;1.20;;;;;;;24.06;54.20;99355.62;106113;1274;24211;-88
2022/07/06 10:41:13;;;;;;;5.30;1.30;;;;;;;24.28;53.14;99352.16;106188;1274;25441;-89
2022/07/06 10:44:19;;;;;;;8.80;1.30;;;;;;;24.41;53.46;99351.52;106441;1274;22668;-90
2022/07/06 10:47:06;;;;;;;3.90;1.00;;;;;;;24.84;54.09;99352.25;105799;1277;24212;-94
2022/07/06 10:49:49;;;;;;;5.00;1.00;;;;;;;25.12;53.10;99349.19;106085;1277;22759;-89
2022/07/06 10:52:57;;;;;;;5.50;1.50;;;;;;;24.98;52.82;99355.20;106004;1277;22547;-90
2022/07/06 10:59:32;;;;;;;4.90;1.30;;;;;;;24.23;53.26;99367.37;105894;1277;26404;-89
2022/07/06 11:02:34;;;;;;;6.20;1.50;;;;;;;24.16;53.63;99367.75;106513;1274;25939;-89
2022/07/06 11:05:11;;;;;;;3.80;1.40;;;;;;;23.88;53.33;99365.52;106151;1277;24257;-86
2022/07/06 11:08:08;;;;;;;5.90;1.30;;;;;;;23.59;53.46;99377.98;106069;1277;25452;-88
2022/07/06 11:10:56;;;;;;;5.90;1.40;;;;;;;23.23;53.24;99376.06;105900;1274;22570;-86
2022/07/06 11:13:40;;;;;;;4.80;1.40;;;;;;;22.91;53.16;99371.23;106201;1274;23188;-86
2022/07/06 11:16:09;;;;;;;6.00;1.30;;;;;;;22.63;53.53;99375.03;105991;1274;25439;-87
2022/07/06 11:19:06;;;;;;;5.20;1.40;;;;;;;22.49;53.67;99377.27;105989;1274;24182;-87
2022/07/06 11:21:56;;;;;;;5.70;1.50;;;;;;;22.40;53.36;99376.01;106147;1274;22537;-88
2022/07/06 11:24:57;;;;;;;5.20;1.30;;;;;;;22.39;53.42;99370.02;105916;1275;25566;-89
2022/07/06 11:27:34;;;;;;;7.20;1.20;;;;;;;22.65;53.69;99368.64;106136;1274;25525;-89
2022/07/06 11:30:02;;;;;;;6.30;1.30;;;;;;;23.22;52.71;99366.65;106194;1274;22586;-88
2022/07/06 11:32:35;;;;;;;3.70;1.20;;;;;;;23.55;52.45;99367.06;106143;1277;22703;-88
2022/07/06 11:35:11;;;;;;;3.70;1.10;;;;;;;23.99;52.69;99359.25;105967;1277;23187;-86
2022/07/06 11:37:47;;;;;;;4.90;1.20;;;;;;;24.46;52.44;99350.29;106000;1276;24459;-88
2022/07/06 11:40:54;;;;;;;3.80;1.20;;;;;;;24.90;52.58;99358.56;105911;1277;22550;-87
2022/07/06 11:43:45;;;;;;;3.20;1.00;;;;;;;24.75;51.04;99358.88;105803;1277;22562;-87
2022/07/06 11:46:30;;;;;;;4.50;1.40;;;;;;;24.10;51.22;99367.66;105961;1277;24427;-86
2022/07/06 11:49:01;;;;;;;5.30;1.10;;;;;;;23.62;51.29;99376.13;105839;1277;25339;-87
2022/07/06 11:51:31;;;;;;;5.60;1.30;;;;;;;23.29;51.36;99379.69;106509;1274;22611;-89
2022/07/06 11:54:11;;;;;;;4.50;1.30;;;;;;;22.97;51.02;99371.59;105987;1274;25318;-87
2022/07/06 11:56:56;;;;;;;6.50;1.20;;;;;;;22.73;51.49;99372.97;106042;1274;22541;-89
2022/07/06 11:59:40;;;;;;;3.50;1.20;;;;;;;22.85;50.94;99376.23;105783;1277;22559;-91
2022/07/06 12:02:42;;;;;;;7.40;1.20;;;;;;;23.26;50.76;99373.42;105962;1277;24206;-87
2022/07/06 12:05:42;;;;;;;3.20;1.00;;;;;;;23.66;50.84;99361.45;105952;1277;25432;-86
2022/07/06 12:08:52;;;;;;;4.90;1.30;;;;;;;24.10;50.64;99358.80;105963;1277;22544;-85
2022/07/06 12:12:17;;;;;;;3.50;1.20;;;;;;;24.37;50.02;99346.19;106187;1275;25434;-87
2022/07/06 12:15:08;;;;;;;4.80;0.90;;;;;;;24.68;49.84;99346.11;106063;1277;25751;-86
2022/07/06 12:17:58;;;;;;;3.20;1.10;;;;;;;24.95;50.00;99339.88;106198;1274;22589;-90
2022/07/06 12:21:03;;;;;;;3.90;1.00;;;;;;;25.07;48.72;99340.92;105823;1274;22528;-88
2022/07/06 12:24:02;;;;;;;6.50;1.20;;;;;;;24.65;49.37;99347.86;106122;1274;24314;-93
2022/07/06 12:26:58;;;;;;;4.50;1.20;;;;;;;24.36;49.60;99346.10;106888;1277;25477;-90
2022/07/06 12:29:50;;;;;;;4.20;1.00;;;;;;;24.11;48.99;99348.50;108074;1274;23382;-91
2022/07/06 12:32:40;;;;;;;6.00;1.30;;;;;;;23.63;48.57;99349.84;106683;1274;22611;-87
2022/07/06 12:35:29;;;;;;;3.80;1.10;;;;;;;23.55;48.31;99346.81;106685;1274;22807;-91
2022/07/06 12:38:53;;;;;;;4.20;1.20;;;;;;;23.76;48.48;99348.11;107431;1274;25436;-90
2022/07/06 12:42:39;;;;;;;3.00;1.10;;;;;;;24.04;48.22;99337.77;107240;1277;22568;-91
2022/07/06 12:45:49;;;;;;;4.90;1.20;;;;;;;24.22;48.55;99333.61;106796;1283;22699;-91
2022/07/06 12:48:36;;;;;;;3.70;1.00;;;;;;;24.47;48.88;99333.45;105776;1283;25020;-90
2022/07/06 12:51:29;;;;;;;3.90;1.00;;;;;;;24.58;48.63;99338.48;105806;1283;22811;-89
2022/07/06 12:54:49;;;;;;;5.20;1.10;;;;;;;24.15;47.97;99344.73;105631;1283;22537;-90
2022/07/06 12:58:40;;;;;;;6.20;1.10;;;;;;;23.66;48.17;99351.17;105315;1289;26719;-89
2022/07/06 13:01:25;;;;;;;5.70;1.40;;;;;;;23.45;48.41;99349.29;104970;1289;25624;-90
2022/07/06 13:04:09;;;;;;;3.70;1.20;;;;;;;23.84;48.50;99347.66;104852;1289;25743;-92
2022/07/06 13:07:37;;;;;;;3.80;1.00;;;;;;;24.22;47.93;99340.16;105486;1288;23174;-88
2022/07/06 13:10:41;;;;;;;3.90;1.10;;;;;;;24.42;47.50;99343.33;104683;1297;25587;-89
2022/07/06 13:13:59;;;;;;;5.20;1.10;;;;;;;24.63;47.94;99336.66;103892;1297;22709;-91
2022/07/06 13:17:53;;;;;;;4.00;1.10;;;;;;;24.96;47.86;99338.11;104126;1297;24266;-89
2022/07/06 13:21:42;;;;;;;3.90;1.00;;;;;;;24.98;46.95;99343.40;105067;1297;24344;-90
2022/07/06 13:28:44;;;;;;;6.00;1.60;;;;;;;24.51;46.94;99346.00;108324;1277;22503;-91
2022/07/06 13:31:40;;;;;;;;;;;;;;;;;;;;;
2022/07/06 13:35:09;;;;;;;4.60;1.30;;;;;;;24.49;46.60;99343.18;106897;1277;25451;-92
2022/07/06 13:39:06;;;;;;;;;;;;;;;;;;;;;
2022/07/06 13:43:00;;;;;;;;;;;;;;;;;;;;;
2022/07/06 13:46:45;;;;;;;;;;;;;;;;;;;;;
2022/07/06 13:50:10;;;;;;;4.30;1.10;;;;;;;24.79;45.46;99341.61;104637;1300;25387;-89
2022/07/06 13:53:40;;;;;;;3.70;1.00;;;;;;;24.78;44.87;99345.85;105708;1299;22773;-88
2022/07/06 13:57:07;;;;;;;;;;;;;;;;;;;;;
2022/07/06 14:00:18;;;;;;;5.10;1.20;;;;;;;24.58;44.67;99341.70;109138;1266;23325;-89
2022/07/06 14:03:30;;;;;;;;;;;;;;;;;;;;;
2022/07/06 14:06:19;;;;;;;3.00;0.90;;;;;;;24.59;44.22;99345.39;108373;1277;24279;-92
2022/07/06 14:09:25;;;;;;;;;;;;;;;;;;;;;
2022/07/06 14:16:40;;;;;;;2.30;0.90;;;;;;;24.07;44.42;99338.83;107003;1287;23366;-92
2022/07/06 14:20:10;;;;;;;6.40;1.00;;;;;;;24.22;44.51;99327.43;105904;1296;25417;-92
2022/07/06 14:23:02;;;;;;;5.40;1.10;;;;;;;24.50;44.62;99323.70;105238;1300;22578;-92
2022/07/06 14:25:40;;;;;;;3.50;1.10;;;;;;;24.52;44.15;99323.55;105016;1300;26913;-91
2022/07/06 14:28:20;;;;;;;6.50;2.40;;;;;;;24.62;44.14;99324.80;104263;1300;24248;-90
2022/07/06 14:30:54;;;;;;;3.30;1.00;;;;;;;24.84;44.26;99324.22;104528;1300;25400;-89
2022/07/06 14:33:28;;;;;;;4.60;0.90;;;;;;;24.97;43.87;99326.86;104736;1300;23307;-91
2022/07/06 14:36:40;;;;;;;4.90;0.80;;;;;;;24.83;43.20;99328.48;105625;1300;24269;-93
2022/07/06 14:39:34;;;;;;;4.40;0.90;;;;;;;24.69;43.51;99327.23;105586;1300;22626;-93
2022/07/06 14:42:20;;;;;;;3.60;0.60;;;;;;;24.59;43.32;99330.90;104138;1301;22613;-87
2022/07/06 14:45:02;;;;;;;6.90;0.80;;;;;;;24.66;43.98;99324.17;103611;1303;22599;-92
2022/07/06 14:47:36;;;;;;;1.90;0.60;;;;;;;24.47;43.70;99325.95;104126;1300;24292;-92
2022/07/06 14:50:12;;;;;;;3.10;0.80;;;;;;;24.34;43.63;99325.48;104100;1300;22582;-90
2022/07/06 14:53:31;;;;;;;3.40;0.70;;;;;;;24.54;43.87;99324.17;103986;1300;22694;-90
2022/07/06 14:56:35;;;;;;;4.20;0.80;;;;;;;24.88;43.81;99326.23;105147;1291;22585;-92
2022/07/06 14:59:19;;;;;;;5.70;0.90;;;;;;;24.87;43.33;99324.37;105242;1281;23012;-89
2022/07/06 15:02:02;;;;;;;5.70;1.00;;;;;;;24.94;43.73;99323.67;106291;1281;22593;-90
2022/07/06 15:04:45;;;;;;;3.80;0.70;;;;;;;24.95;43.65;99319.79;105628;1282;23173;-91
2022/07/06 15:07:17;;;;;;;3.20;0.80;;;;;;;24.91;43.36;99323.91;106361;1281;22550;-93
2022/07/06 15:09:58;;;;;;;6.30;0.90;;;;;;;24.79;42.91;99325.02;106381;1281;25367;-92
2022/07/06 15:12:50;;;;;;;4.90;0.80;;;;;;;24.65;43.53;99321.77;105849;1281;22545;-90
2022/07/06 15:15:26;;;;;;;3.60;0.80;;;;;;;24.78;43.39;99325.42;105765;1281;25422;-91
2022/07/06 15:17:59;;;;;;;3.50;0.80;;;;;;;24.67;42.70;99323.42;105913;1281;22797;-90
2022/07/06 15:20:57;;;;;;;6.00;1.00;;;;;;;24.53;43.17;99324.16;105915;1281;22564;-92
2022/07/06 15:23:38;;;;;;;5.80;1.20;;;;;;;24.51;42.25;99321.33;108247;1281;23817;-91
2022/07/06 15:26:34;;;;;;;4.60;1.10;;;;;;;24.44;42.36;99321.02;107956;1281;22617;-90
2022/07/06 15:29:21;;;;;;;3.40;0.60;;;;;;;24.36;42.71;99319.20;107221;1281;23150;-90
2022/07/06 15:32:21;;;;;;;;;;;;;;;;;;;;;
2022/07/06 15:35:16;;;;;;;3.60;0.80;;;;;;;24.69;42.10;99315.92;106359;1281;22573;-90
2022/07/06 15:38:23;;;;;;;;;;;;;;;;;;;;;
2022/07/06 15:41:12;;;;;;;5.60;1.20;;;;;;;24.88;41.62;99314.97;106455;1281;25467;-91
2022/07/06 15:43:52;;;;;;;3.00;0.90;;;;;;;25.00;41.52;99318.15;108044;1281;22697;-89
2022/07/06 15:46:49;;;;;;;7.40;0.90;;;;;;;25.10;41.19;99317.77;107704;1281;22545;-89
2022/07/06 15:49:45;;;;;;;;;;;;;;;;;;;;;
2022/07/06 15:52:46;;;;;;;2.80;0.60;;;;;;;25.33;41.31;99312.21;107560;1281;23852;-91
2022/07/06 15:55:45;;;;;;;4.00;0.90;;;;;;;25.56;41.88;99312.49;108343;1281;25475;-89
2022/07/06 15:58:37;;;;;;;3.60;1.00;;;;;;;25.85;40.54;99309.86;107486;1281;22637;-90
2022/07/06 16:01:31;;;;;;;4.70;0.90;;;;;;;25.72;41.08;99303.81;107426;1281;22480;-92
2022/07/06 16:04:03;;;;;;;4.40;1.10;;;;;;;25.65;40.53;99301.44;107489;1282;22545;-87
2022/07/06 16:06:38;;;;;;;4.20;1.00;;;;;;;25.66;40.79;99297.91;106907;1282;22566;-89
2022/07/06 16:09:27;;;;;;;2.60;0.90;;;;;;;26.00;40.78;99297.05;106640;1282;22768;-92
2022/07/06 16:12:23;;;;;;;3.30;0.90;;;;;;;26.07;40.64;99293.30;106268;1281;25930;-91
2022/07/06 16:15:15;;;;;;;2.70;1.00;;;;;;;26.29;41.27;99297.56;106784;1281;22546;-93
2022/07/06 16:18:17;;;;;;;3.90;0.70;;;;;;;26.44;41.19;99295.84;106398;1281;23816;-90
2022/07/06 16:21:27;;;;;;;2.70;0.90;;;;;;;26.14;40.53;99298.38;106209;1281;22584;-90
2022/07/06 16:24:22;;;;;;;5.80;1.20;;;;;;;26.09;40.34;99295.48;107179;1280;26694;-91
2022/07/06 16:27:03;;;;;;;3.30;0.70;;;;;;;25.63;39.75;99300.64;106531;1282;22527;-90
2022/07/06 16:30:06;;;;;;;4.20;0.70;;;;;;;24.77;40.16;99300.16;106292;1281;22576;-91
2022/07/06 16:35:37;;;;;;;3.20;0.80;;;;;;;24.92;40.72;99302.02;106110;1281;22772;-87
2022/07/06 16:38:41;;;;;;;5.40;1.10;;;;;;;24.76;40.47;99297.85;105923;1281;25364;-91
2022/07/06 16:41:50;;;;;;;3.40;0.90;;;;;;;24.66;39.91;99301.56;106681;1281;22575;-91
2022/07/06 16:45:07;;;;;;;2.90;0.80;;;;;;;24.44;39.90;99302.89;107367;1281;22708;-92
2022/07/06 16:48:05;;;;;;;6.30;1.10;;;;;;;23.99;40.32;99308.89;106942;1281;22573;-91
2022/07/06 16:51:02;;;;;;;3.70;0.90;;;;;;;24.18;40.39;99305.59;106782;1280;22557;-89
2022/07/06 16:53:55;;;;;;;4.40;0.90;;;;;;;24.41;40.43;99308.16;106556;1284;22618;-90
2022/07/06 16:57:01;;;;;;;3.10;0.60;;;;;;;25.01;40.14;99304.88;106902;1281;22568;-92
2022/07/06 17:00:48;;;;;;;3.50;0.90;;;;;;;24.90;39.20;99303.60;106836;1281;24291;-92
2022/07/06 17:03:29;;;;;;;2.90;0.90;;;;;;;23.93;40.07;99304.40;105901;1282;25319;-91
2022/07/06 17:06:19;;;;;;;5.70;0.70;;;;;;;23.33;40.15;99312.96;106115;1282;22589;-91
2022/07/06 17:09:28;;;;;;;;;;;;;;;;;;;;;
2022/07/06 17:13:02;;;;;;;2.30;0.70;;;;;;;22.49;40.49;99310.91;106754;1279;25364;-91
2022/07/06 17:16:43;;;;;;;;;;;;;;;;;;;;;
2022/07/06 17:20:46;;;;;;;5.40;0.80;;;;;;;21.99;40.71;99317.29;104684;1290;22553;-90
2022/07/06 17:24:08;;;;;;;7.10;1.10;;;;;;;21.88;40.42;99318.08;104248;1297;22585;-89
2022/07/06 17:27:24;;;;;;;;;;;;;;;;;;;;;
2022/07/06 17:30:25;;;;;;;3.80;0.60;;;;;;;21.37;40.38;99323.10;104133;1297;22563;-91
2022/07/06 17:34:08;;;;;;;;;;;;;;;;;;;;;
2022/07/06 17:37:42;;;;;;;7.00;0.80;;;;;;;20.87;40.34;99324.83;104691;1295;25926;-90
2022/07/06 17:41:03;;;;;;;4.80;0.90;;;;;;;20.72;40.43;99320.10;104156;1297;22658;-89
2022/07/06 17:45:00;;;;;;;8.20;1.00;;;;;;;20.67;40.37;99318.73;104470;1294;22566;-90
2022/07/06 17:48:23;;;;;;;;;;;;;;;;;;;;;
2022/07/06 17:52:14;;;;;;;;;;;;;;;;;;;;;
2022/07/06 17:55:44;;;;;;;5.70;0.80;;;;;;;20.53;40.72;99318.80;103582;1300;24487;-91
2022/07/06 18:02:05;;;;;;;5.90;1.00;;;;;;;20.32;40.70;99326.88;104596;1298;22609;-91
2022/07/06 18:04:48;;;;;;;5.70;1.00;;;;;;;20.26;40.41;99327.20;104276;1298;25366;-89
2022/07/06 18:07:27;;;;;;;11.10;1.20;;;;;;;20.17;40.58;99329.71;103892;1300;22525;-91
2022/07/06 18:10:06;;;;;;;4.40;0.80;;;;;;;20.12;40.78;99333.88;104046;1297;24051;-90
2022/07/06 18:12:50;;;;;;;10.80;1.10;;;;;;;20.06;40.71;99336.02;104259;1297;22697;-88
2022/07/06 18:15:33;;;;;;;5.30;1.20;;;;;;;19.98;40.75;99335.63;104244;1297;22559;-91
2022/07/06 18:18:16;;;;;;;5.70;0.90;;;;;;;19.86;40.92;99343.23;104161;1297;22766;-89
2022/07/06 18:20:54;;;;;;;5.20;1.20;;;;;;;19.80;41.38;99344.73;104264;1297;23389;-88
2022/07/06 18:23:27;;;;;;;5.00;0.90;;;;;;;19.71;41.35;99346.59;104168;1290;22734;-90
2022/07/06 18:26:06;;;;;;;5.90;1.10;;;;;;;19.59;41.30;99344.27;104368;1291;22578;-90
2022/07/06 18:28:36;;;;;;;4.50;0.90;;;;;;;19.51;41.69;99346.71;104542;1290;25535;-89
2022/07/06 18:31:05;;;;;;;4.40;0.80;;;;;;;19.41;41.55;99347.94;104414;1288;25585;-92
2022/07/06 18:33:47;;;;;;;2.50;0.80;;;;;;;19.30;41.69;99353.27;105411;1281;25384;-91
2022/07/06 18:36:26;;;;;;;3.50;0.70;;;;;;;19.15;41.64;99351.89;105257;1281;22486;-91
2022/07/06 18:39:04;;;;;;;5.20;1.10;;;;;;;19.06;42.12;99350.23;105315;1281;24285;-90
2022/07/06 18:41:49;;;;;;;5.20;1.00;;;;;;;18.95;42.02;99345.27;105451;1281;22567;-90
2022/07/06 18:44:25;;;;;;;4.70;1.00;;;;;;;18.84;41.98;99348.54;105310;1281;22548;-91
2022/07/06 18:51:28;;;;;;;5.80;0.90;;;;;;;18.49;42.05;99349.15;104884;1287;25456;-89
2022/07/06 18:54:18;;;;;;;5.60;1.00;;;;;;;18.39;42.51;99350.40;104757;1287;22557;-90
2022/07/06 18:57:07;;;;;;;3.70;0.80;;;;;;;18.24;42.34;99352.64;104742;1287;25638;-91
2022/07/06 18:59:57;;;;;;;4.10;0.90;;;;;;;18.11;42.46;99354.05;104874;1287;25340;-89
2022/07/06 19:03:32;;;;;;;4.20;1.00;;;;;;;17.98;42.54;99356.27;104828;1287;22589;-89
2022/07/06 19:07:06;;;;;;;5.70;1.20;;;;;;;17.77;42.88;99362.42;104897;1290;22636;-91
2022/07/06 19:09:49;;;;;;;4.00;1.00;;;;;;;17.65;42.76;99368.43;104628;1290;25579;-90
2022/07/06 19:12:37;;;;;;;4.40;0.90;;;;;;;17.54;42.91;99371.09;105092;1290;22747;-88
2022/07/06 19:15:32;;;;;;;5.40;1.20;;;;;;;17.42;42.84;99378.56;104851;1291;24797;-88
2022/07/06 19:18:12;;;;;;;3.30;1.00;;;;;;;17.30;42.88;99383.55;104502;1290;22658;-93
2022/07/06 19:21:04;;;;;;;;;;;;;;;;;;;;;
2022/07/06 19:24:14;;;;;;;4.70;1.00;;;;;;;17.08;43.13;99390.42;104682;1293;22522;-92
2022/07/06 19:26:58;;;;;;;;;;;;;;;;;;;;;
2022/07/06 19:30:15;;;;;;;6.20;1.20;;;;;;;16.87;43.76;99389.90;104770;1287;22687;-90
2022/07/06 19:41:15;;;;;;;5.90;1.60;;;;;;;16.49;43.96;99396.98;105454;1287;25321;-89
2022/07/06 19:44:07;;;;;;;7.70;1.60;;;;;;;16.39;44.31;99400.08;105149;1287;25406;-90
2022/07/06 19:46:59;;;;;;;;;;;;;;;;;;;;;
2022/07/06 19:50:03;;;;;;;6.80;1.70;;;;;;;16.18;44.58;99404.03;104946;1286;22932;-89
2022/07/06 19:52:45;;;;;;;7.50;1.70;;;;;;;16.12;44.60;99407.33;104916;1287;22589;-89